createdAt,value
2023-03-15T00:49:01.198Z,7.03
2023-03-15T00:51:46.605Z,7.28
2023-03-15T00:54:35.914Z,6.45
2023-03-15T00:57:22.086Z,7.65
2023-03-15T01:46:28.734Z,6.53
2023-03-15T01:49:33.356Z,8.67
2023-03-15T01:52:24.655Z,6.35
2023-03-15T01:55:24.092Z,6.13
2023-03-15T01:58:25.905Z,5.95
2023-03-15T02:46:52.375Z,10.82
2023-03-15T02:49:44.044Z,5.17
2023-03-15T02:52:29.844Z,6.28
2023-03-15T02:55:14.912Z,6.38
2023-03-15T02:58:03.480Z,6.10
2023-03-15T03:48:45.873Z,5.50
2023-03-15T03:51:34.150Z,4.90
2023-03-15T03:54:21.380Z,5.50
2023-03-15T03:57:07.070Z,5.32
2023-03-15T03:59:54.497Z,5.03
2023-03-15T04:48:23.779Z,3.65
2023-03-15T04:51:47.570Z,4.40
2023-03-15T04:54:44.657Z,4.47
2023-03-15T04:57:48.928Z,5.28
2023-03-15T05:46:48.134Z,6.25
2023-03-15T05:50:04.978Z,8.48
2023-03-15T05:53:13.215Z,4.95
2023-03-15T05:56:20.929Z,7.18
2023-03-15T05:59:23.615Z,8.00
2023-03-15T06:02:27.256Z,5.03
2023-03-15T06:05:29.785Z,8.05
2023-03-15T06:08:19.289Z,7.88
2023-03-15T06:11:07.202Z,5.20
2023-03-15T06:13:52.436Z,4.77
2023-03-15T06:16:50.871Z,7.15
2023-03-15T06:19:38.073Z,6.30
2023-03-15T06:22:24.570Z,5.65
2023-03-15T06:25:14.722Z,5.35
2023-03-15T06:27:59.932Z,6.23
2023-03-15T06:30:45.438Z,6.50
2023-03-15T06:33:31.803Z,5.53
2023-03-15T06:36:17.552Z,6.30
2023-03-15T06:39:04.447Z,6.00
2023-03-15T06:41:53.654Z,5.70
2023-03-15T06:44:41.636Z,4.82
2023-03-15T06:47:28.216Z,4.88
2023-03-15T06:50:14.220Z,5.50
2023-03-15T06:53:00.001Z,4.97
2023-03-15T06:55:47.091Z,6.07
2023-03-15T06:58:32.359Z,8.55
2023-03-15T07:01:17.789Z,6.68
2023-03-15T07:04:03.216Z,9.82
2023-03-15T07:06:48.346Z,7.50
2023-03-15T07:09:33.702Z,8.40
2023-03-15T07:12:18.941Z,7.85
2023-03-15T07:15:04.526Z,6.97
2023-03-15T07:17:50.281Z,8.52
2023-03-15T07:20:37.633Z,9.02
2023-03-15T07:23:23.297Z,5.10
2023-03-15T07:26:08.717Z,8.57
2023-03-15T07:28:53.967Z,6.93
2023-03-15T07:31:38.916Z,5.70
2023-03-15T07:34:23.925Z,10.02
2023-03-15T07:37:09.527Z,11.57
2023-03-15T07:39:55.552Z,8.13
2023-03-15T07:42:40.841Z,7.10
2023-03-15T07:45:26.816Z,7.43
2023-03-15T07:48:11.971Z,7.35
2023-03-15T07:50:57.348Z,9.17
2023-03-15T07:53:42.592Z,11.52
2023-03-15T07:56:27.881Z,5.88
2023-03-15T07:59:13.199Z,7.07
2023-03-15T08:02:00.735Z,8.30
2023-03-15T08:04:46.912Z,7.77
2023-03-15T08:07:32.429Z,5.90
2023-03-15T08:10:18.288Z,7.80
2023-03-15T08:13:03.824Z,5.65
2023-03-15T08:15:48.989Z,6.32
2023-03-15T08:18:34.278Z,6.20
2023-03-15T08:21:19.616Z,7.57
2023-03-15T08:24:05.276Z,8.65
2023-03-15T08:26:51.298Z,5.45
2023-03-15T08:29:37.271Z,6.25
2023-03-15T08:32:22.879Z,5.13
2023-03-15T08:35:09.446Z,4.85
2023-03-15T08:37:55.500Z,4.88
2023-03-15T08:40:40.773Z,4.70
2023-03-15T08:43:26.440Z,4.45
2023-03-15T08:46:12.810Z,6.23
2023-03-15T08:48:57.942Z,7.60
2023-03-15T08:51:43.119Z,4.32
2023-03-15T08:54:28.379Z,5.35
2023-03-15T08:57:14.282Z,3.55
2023-03-15T09:00:01.831Z,4.30
2023-03-15T09:02:48.800Z,3.80
2023-03-15T09:05:34.206Z,3.70
2023-03-15T09:08:21.425Z,4.50
2023-03-15T09:11:06.808Z,4.95
2023-03-15T09:13:52.020Z,5.40
2023-03-15T09:16:37.164Z,3.95
2023-03-15T09:19:22.569Z,5.43
2023-03-15T09:22:16.618Z,4.88
2023-03-15T09:25:10.007Z,4.38
2023-03-15T09:27:55.580Z,4.93
2023-03-15T09:30:42.349Z,3.97
2023-03-15T09:33:27.705Z,4.97
2023-03-15T09:36:13.325Z,3.05
2023-03-15T09:38:58.417Z,5.35
2023-03-15T09:41:47.281Z,3.80
2023-03-15T09:44:48.161Z,3.60
2023-03-15T09:47:40.770Z,4.65
2023-03-15T09:50:31.550Z,4.47
2023-03-15T09:53:21.749Z,3.47
2023-03-15T09:56:22.613Z,3.83
2023-03-15T09:59:10.532Z,4.75
2023-03-15T10:01:58.520Z,3.25
2023-03-15T10:04:45.602Z,4.95
2023-03-15T10:07:32.913Z,4.07
2023-03-15T10:10:25.082Z,3.93
2023-03-15T10:13:35.152Z,3.97
2023-03-15T10:16:26.206Z,4.03
2023-03-15T10:19:44.555Z,4.32
2023-03-15T10:22:47.370Z,3.63
2023-03-15T10:25:33.296Z,4.37
2023-03-15T10:28:31.266Z,3.75
2023-03-15T10:31:36.836Z,3.80
2023-03-15T10:34:29.694Z,3.75
2023-03-15T10:37:15.554Z,3.80
2023-03-15T10:40:01.009Z,3.37
2023-03-15T10:42:47.356Z,3.67
2023-03-15T10:45:33.832Z,3.67
2023-03-15T10:48:19.503Z,3.50
2023-03-15T10:51:21.388Z,2.80
2023-03-15T10:54:24.118Z,4.50
2023-03-15T10:57:19.187Z,4.53
2023-03-15T11:00:20.765Z,4.45
2023-03-15T11:03:15.791Z,5.13
2023-03-15T11:06:01.591Z,3.20
2023-03-15T11:08:47.107Z,4.20
2023-03-15T11:12:02.249Z,3.53
2023-03-15T11:14:50.580Z,3.58
2023-03-15T11:17:43.211Z,3.33
2023-03-15T11:20:36.307Z,4.18
2023-03-15T11:23:26.205Z,3.87
2023-03-15T11:26:31.404Z,3.58
2023-03-15T11:29:28.085Z,5.55
2023-03-15T11:32:22.879Z,3.70
2023-03-15T11:35:15.147Z,4.20
2023-03-15T11:38:15.425Z,3.03
2023-03-15T11:41:11.019Z,2.90
2023-03-15T11:44:05.003Z,2.60
2023-03-15T11:46:57.467Z,4.63
2023-03-15T11:49:47.302Z,3.63
2023-03-15T11:52:32.822Z,4.80
2023-03-15T11:55:25.670Z,3.63
2023-03-15T11:58:44.808Z,4.80
2023-03-15T12:01:30.072Z,3.35
2023-03-15T12:04:24.358Z,4.50
2023-03-15T12:07:19.202Z,4.73
2023-03-15T12:10:04.432Z,5.00
2023-03-15T12:12:58.606Z,6.22
2023-03-15T12:15:46.044Z,4.88
2023-03-15T12:18:39.016Z,4.93
2023-03-15T12:21:52.207Z,4.13
2023-03-15T12:24:39.410Z,4.90
2023-03-15T12:27:28.038Z,3.53
2023-03-15T12:30:21.637Z,5.30
2023-03-15T12:33:16.791Z,4.25
2023-03-15T12:36:09.007Z,4.33
2023-03-15T12:39:17.453Z,4.95
2023-03-15T12:42:04.802Z,3.67
2023-03-15T12:44:50.057Z,2.90
2023-03-15T12:47:50.800Z,4.65
2023-03-15T12:50:39.051Z,5.33
2023-03-15T12:53:30.699Z,4.10
2023-03-15T12:56:25.219Z,5.68
2023-03-15T12:59:15.632Z,4.53
2023-03-15T13:02:02.236Z,3.67
2023-03-15T13:04:49.747Z,3.87
2023-03-15T13:07:58.857Z,3.42
2023-03-15T13:10:53.644Z,4.88
2023-03-15T13:14:01.046Z,3.45
2023-03-15T13:16:57.701Z,3.55
2023-03-15T13:19:55.017Z,3.33
2023-03-15T13:23:02.969Z,4.25
2023-03-15T13:26:20.927Z,3.83
2023-03-15T13:29:15.045Z,4.90
2023-03-15T13:32:13.552Z,3.97
2023-03-15T13:34:59.363Z,3.20
2023-03-15T13:37:45.154Z,3.88
2023-03-15T13:40:30.374Z,3.13
2023-03-15T13:43:15.604Z,4.57
2023-03-15T13:46:01.236Z,3.60
2023-03-15T13:48:47.483Z,3.13
2023-03-15T13:51:38.854Z,3.53
2023-03-15T13:54:31.849Z,4.85
2023-03-15T13:57:22.013Z,2.95
2023-03-15T14:00:17.760Z,3.95
2023-03-15T14:03:07.364Z,3.40
2023-03-15T14:05:55.115Z,3.15
2023-03-15T14:08:41.000Z,3.35
2023-03-15T14:11:25.847Z,2.78
2023-03-15T14:14:23.017Z,2.88
2023-03-15T14:17:39.118Z,2.93
2023-03-15T14:20:29.794Z,3.55
2023-03-15T14:23:17.842Z,3.80
2023-03-15T14:26:13.602Z,4.20
2023-03-15T14:29:07.504Z,5.15
2023-03-15T14:31:52.913Z,2.97
2023-03-15T14:34:46.141Z,3.40
2023-03-15T14:37:39.129Z,3.55
2023-03-15T14:40:34.878Z,5.43
2023-03-15T14:43:20.603Z,3.33
2023-03-15T14:46:07.364Z,3.20
2023-03-15T14:48:53.332Z,3.65
2023-03-15T14:51:38.352Z,4.70
2023-03-15T14:54:24.072Z,3.42
2023-03-15T14:57:09.298Z,3.83
2023-03-15T14:59:54.948Z,3.10
2023-03-15T15:02:40.965Z,3.38
2023-03-15T15:05:29.334Z,3.65
2023-03-15T15:08:18.208Z,3.85
2023-03-15T15:11:03.951Z,3.55
2023-03-15T15:13:49.074Z,5.90
2023-03-15T15:16:34.328Z,4.05
2023-03-15T15:19:19.619Z,2.63
2023-03-15T15:22:05.014Z,3.22
2023-03-15T15:24:51.456Z,3.28
2023-03-15T15:27:36.718Z,3.40
2023-03-15T15:30:25.081Z,3.22
2023-03-15T15:33:11.577Z,3.13
2023-03-15T15:35:57.931Z,4.65
2023-03-15T15:38:44.701Z,2.35
2023-03-15T15:41:31.605Z,3.73
2023-03-15T15:44:21.929Z,3.80
2023-03-15T15:47:07.277Z,2.88
2023-03-15T15:49:52.368Z,3.13
2023-03-15T15:52:43.296Z,2.83
2023-03-15T15:55:33.639Z,4.43
2023-03-15T15:58:19.058Z,3.38
2023-03-15T16:01:04.281Z,3.75
2023-03-15T16:03:50.227Z,3.65
2023-03-15T16:06:37.211Z,3.15
2023-03-15T16:09:25.269Z,2.80
2023-03-15T16:12:14.941Z,2.83
2023-03-15T16:15:00.212Z,3.25
2023-03-15T16:17:45.959Z,3.92
2023-03-15T16:20:31.677Z,2.30
2023-03-15T16:23:22.341Z,2.33
2023-03-15T16:26:10.267Z,4.32
2023-03-15T16:28:55.891Z,3.70
2023-03-15T16:31:41.133Z,3.90
2023-03-15T16:34:26.950Z,3.08
2023-03-15T16:37:20.162Z,4.03
2023-03-15T16:40:10.741Z,4.95
2023-03-15T16:42:57.086Z,2.70
2023-03-15T16:45:42.592Z,6.50
2023-03-15T16:48:28.726Z,10.85
2023-03-15T16:51:16.008Z,10.63
2023-03-15T16:54:15.002Z,14.23
2023-03-15T16:57:03.502Z,12.63
2023-03-15T16:59:50.184Z,12.52
2023-03-15T17:02:35.481Z,12.20
2023-03-15T17:05:21.623Z,13.57
2023-03-15T17:08:11.405Z,10.13
2023-03-15T17:15:41.408Z,8.82
2023-03-15T17:18:28.499Z,13.95
2023-03-15T17:21:16.477Z,15.13
2023-03-15T17:24:02.275Z,9.20
2023-03-15T17:26:48.186Z,10.18
2023-03-15T17:29:33.810Z,12.30
2023-03-15T17:32:19.221Z,8.77
2023-03-15T17:35:04.737Z,11.63
2023-03-15T17:37:50.587Z,9.07
2023-03-15T17:40:36.486Z,9.25
2023-03-15T17:43:21.761Z,10.60
2023-03-15T17:46:08.691Z,8.32
2023-03-15T17:48:54.489Z,9.77
2023-03-15T17:51:39.931Z,7.40
2023-03-15T17:54:25.108Z,11.50
2023-03-15T17:57:12.786Z,11.07
2023-03-15T17:59:58.326Z,8.60
2023-03-15T18:02:49.756Z,9.33
2023-03-15T18:05:40.633Z,6.55
2023-03-15T18:08:26.105Z,7.55
2023-03-15T18:11:16.350Z,7.07
2023-03-15T18:14:04.878Z,8.82
2023-03-15T18:16:50.493Z,7.70
2023-03-15T18:19:36.108Z,7.28
2023-03-15T18:22:21.444Z,7.13
2023-03-15T18:25:24.256Z,6.78
2023-03-15T18:28:12.388Z,5.75
2023-03-15T18:30:57.707Z,7.73
2023-03-15T18:33:43.380Z,6.35
2023-03-15T18:36:29.536Z,7.40
2023-03-15T18:39:14.860Z,7.93
2023-03-15T18:42:00.894Z,6.68
2023-03-15T18:44:47.615Z,12.07
2023-03-15T18:47:33.282Z,17.27
2023-03-15T18:50:19.638Z,21.42
2023-03-15T18:53:06.383Z,21.52
2023-03-15T18:55:52.137Z,20.42
2023-03-15T18:58:38.605Z,20.90
2023-03-15T19:01:24.963Z,19.38
2023-03-15T19:04:11.374Z,20.85
2023-03-15T19:06:57.794Z,16.25
2023-03-15T19:09:47.168Z,17.00
2023-03-15T19:12:40.102Z,17.30
2023-03-15T19:15:26.231Z,19.25
2023-03-15T19:18:18.760Z,17.60
2023-03-15T19:21:04.476Z,17.02
2023-03-15T19:23:49.701Z,16.15
2023-03-15T19:26:34.926Z,15.97
2023-03-15T19:29:20.726Z,17.33
2023-03-15T19:32:06.433Z,16.83
2023-03-15T19:34:51.993Z,16.58
2023-03-15T19:37:38.234Z,16.08
2023-03-15T19:40:23.322Z,17.63
2023-03-15T19:43:10.256Z,14.82
2023-03-15T19:45:55.981Z,15.52
2023-03-15T19:48:41.882Z,15.48
2023-03-15T19:51:32.210Z,14.30
2023-03-15T19:54:18.351Z,15.10
2023-03-15T19:57:03.713Z,14.60
2023-03-15T19:59:49.653Z,13.40
2023-03-15T20:02:34.898Z,12.27
2023-03-15T20:05:21.072Z,14.25
2023-03-15T20:08:08.302Z,12.93
2023-03-15T20:10:59.558Z,11.88
2023-03-15T20:13:45.008Z,13.77
2023-03-15T20:16:30.565Z,11.95
2023-03-15T20:19:16.010Z,12.98
2023-03-15T20:22:01.105Z,15.17
2023-03-15T20:24:46.577Z,14.32
2023-03-15T20:27:33.239Z,13.32
2023-03-15T20:30:22.599Z,13.10
2023-03-15T20:33:08.881Z,14.18
2023-03-15T20:35:57.830Z,13.77
2023-03-15T20:38:43.847Z,16.98
2023-03-15T20:41:29.172Z,13.43
2023-03-15T20:44:14.384Z,13.25
2023-03-15T20:47:00.721Z,12.02
2023-03-15T20:49:47.332Z,12.93
2023-03-15T20:52:34.152Z,13.73
2023-03-15T20:55:19.886Z,14.45
2023-03-15T20:58:05.238Z,11.95
2023-03-15T21:00:50.822Z,13.57
2023-03-15T21:03:37.065Z,13.87
2023-03-15T21:06:22.784Z,12.75
2023-03-15T21:09:08.396Z,11.60
2023-03-15T21:11:53.791Z,15.13
2023-03-15T21:14:39.017Z,15.43
2023-03-15T21:17:24.291Z,13.67
2023-03-15T21:20:11.559Z,11.95
2023-03-15T21:22:58.071Z,12.75
2023-03-15T21:25:43.496Z,13.15
2023-03-15T21:28:29.459Z,10.52
2023-03-15T21:31:15.469Z,12.77
2023-03-15T21:34:01.004Z,15.20
2023-03-15T21:36:46.336Z,11.40
2023-03-15T21:39:31.882Z,9.93
2023-03-15T21:42:17.073Z,10.05
2023-03-15T21:45:02.439Z,11.37
2023-03-15T21:47:47.663Z,10.57
2023-03-15T21:50:32.573Z,11.60
2023-03-15T21:53:18.133Z,11.07
2023-03-15T21:56:04.352Z,10.90
2023-03-15T21:58:49.536Z,10.97
2023-03-15T22:01:35.818Z,9.57
2023-03-15T22:04:21.822Z,11.20
2023-03-15T22:07:07.726Z,11.38
2023-03-15T22:09:53.092Z,11.63
2023-03-15T22:12:38.692Z,12.90
2023-03-15T22:15:24.458Z,10.32
2023-03-15T22:18:09.567Z,10.38
2023-03-15T22:20:56.135Z,10.05
2023-03-15T22:23:41.306Z,9.52
2023-03-15T22:26:26.733Z,11.07
2023-03-15T22:29:12.053Z,9.52
2023-03-15T22:31:57.213Z,10.07
2023-03-15T22:34:42.834Z,11.93
2023-03-15T22:37:28.393Z,9.00
2023-03-15T22:40:15.092Z,9.37
2023-03-15T22:43:00.682Z,9.55
2023-03-15T22:45:45.962Z,8.95
2023-03-15T22:48:31.316Z,8.63
2023-03-15T22:51:17.146Z,8.15
2023-03-15T22:54:03.001Z,8.63
2023-03-15T22:56:48.435Z,10.45
2023-03-15T22:59:33.802Z,8.20
2023-03-15T23:02:19.452Z,9.68
2023-03-15T23:05:04.953Z,9.40
2023-03-15T23:07:50.310Z,10.07
2023-03-15T23:10:35.892Z,9.93
2023-03-15T23:13:22.213Z,9.60
2023-03-15T23:16:07.427Z,7.88
2023-03-15T23:18:52.598Z,9.73
2023-03-15T23:21:38.204Z,8.70
2023-03-15T23:24:24.652Z,9.63
2023-03-15T23:27:09.954Z,9.77
2023-03-15T23:29:55.617Z,11.88
2023-03-15T23:32:41.880Z,8.63
2023-03-15T23:35:28.550Z,7.30
2023-03-15T23:38:13.962Z,7.97
2023-03-15T23:40:59.166Z,8.77
2023-03-15T23:43:44.611Z,8.15
2023-03-15T23:46:29.937Z,7.97
2023-03-15T23:49:15.369Z,8.00
2023-03-15T23:52:05.354Z,8.82
2023-03-15T23:54:52.987Z,8.57
2023-03-15T23:57:38.437Z,8.00
